Time;durP1;ratioP1;P1;durP2;ratioP2;P2;SDS_P1;SDS_P2;PMS_P1;PMS_P2;Temp;Humidity;BMP_temperature;BMP_pressure;BME280_temperature;BME280_humidity;BME280_pressure;Samples;Min_cycle;Max_cycle;Signal;HPM_P1;HPM_P2
2023/03/11 00:01:59;;;;;;;60.30;56.50;;;14.80;99.90;;;;;;5248268;28;20044;-68
2023/03/11 00:04:30;;;;;;;65.82;61.60;;;14.80;99.90;;;;;;5248243;28;20492;-69
2023/03/11 00:07:01;;;;;;;59.35;55.58;;;14.90;99.90;;;;;;5248111;28;20032;-69
2023/03/11 00:09:32;;;;;;;63.75;59.75;;;14.90;99.90;;;;;;5247899;28;20045;-70
2023/03/11 00:12:04;;;;;;;63.30;59.25;;;14.90;99.90;;;;;;5248083;28;20089;-69
2023/03/11 00:14:34;;;;;;;60.53;56.72;;;15.00;99.90;;;;;;5247923;28;20028;-68
2023/03/11 00:17:05;;;;;;;59.53;55.75;;;14.90;99.90;;;;;;5247939;28;20077;-69
2023/03/11 00:19:36;;;;;;;57.80;54.22;;;15.00;99.90;;;;;;5247883;28;20464;-67
2023/03/11 00:22:07;;;;;;;123.95;116.72;;;14.90;99.90;;;;;;5247946;28;20062;-67
2023/03/11 00:24:38;;;;;;;63.30;59.42;;;15.00;99.90;;;;;;5247808;28;20024;-69
2023/03/11 00:27:11;;;;;;;59.25;55.45;;;15.00;99.90;;;;;;5247712;28;20031;-70
2023/03/11 00:29:45;;;;;;;59.20;55.65;;;14.90;99.90;;;;;;5247526;28;20475;-70
2023/03/11 00:32:22;;;;;;;57.33;53.50;;;14.90;99.90;;;;;;5247151;28;20032;-70
2023/03/11 00:34:53;;;;;;;61.05;56.97;;;15.00;99.90;;;;;;5247674;28;20498;-69
2023/03/11 00:37:24;;;;;;;88.70;83.32;;;14.90;99.90;;;;;;5247170;28;20033;-69
2023/03/11 00:39:55;;;;;;;61.50;57.60;;;14.90;99.90;;;;;;5247581;28;20476;-69
2023/03/11 00:42:25;;;;;;;64.60;60.30;;;14.90;99.90;;;;;;5247400;28;20025;-69
2023/03/11 00:44:56;;;;;;;62.72;58.85;;;14.80;99.90;;;;;;5247502;28;20028;-69
2023/03/11 00:47:27;;;;;;;55.53;51.92;;;14.80;99.90;;;;;;5247313;28;20021;-69
2023/03/11 00:49:58;;;;;;;53.33;49.83;;;14.70;99.90;;;;;;5247266;28;20387;-69
2023/03/11 00:52:29;;;;;;;54.67;51.45;;;14.80;99.90;;;;;;5247308;28;20027;-69
2023/03/11 00:55:00;;;;;;;57.10;53.55;;;14.70;99.90;;;;;;5247344;28;20029;-69
2023/03/11 00:57:31;;;;;;;49.35;46.13;;;14.60;99.90;;;;;;5247170;28;20035;-69
2023/03/11 01:00:02;;;;;;;61.35;57.10;;;14.70;99.90;;;;;;5247319;28;20379;-69
2023/03/11 01:02:34;;;;;;;70.95;66.78;;;14.60;99.90;;;;;;5247397;28;20361;-68
2023/03/11 01:05:06;;;;;;;149.50;140.32;;;14.60;99.90;;;;;;5247505;28;20086;-68
2023/03/11 01:07:37;;;;;;;65.43;61.30;;;14.60;99.90;;;;;;5246865;28;20036;-69
2023/03/11 01:10:09;;;;;;;87.22;81.97;;;14.70;99.90;;;;;;5249272;28;20476;-68
2023/03/11 01:12:40;;;;;;;64.63;60.50;;;14.70;99.90;;;;;;5248207;28;20028;-69
2023/03/11 01:15:25;;;;;;;77.25;72.32;;;14.80;99.90;;;;;;5278096;28;20034;-67
2023/03/11 01:17:55;;;;;;;87.28;81.88;;;14.90;99.90;;;;;;5268016;28;20438;-67
2023/03/11 01:20:27;;;;;;;74.47;69.90;;;14.90;99.90;;;;;;5267977;28;20154;-67
2023/03/11 01:22:58;;;;;;;84.70;78.88;;;14.90;99.90;;;;;;5267855;28;20115;-68
2023/03/11 01:25:29;;;;;;;67.03;62.63;;;14.90;99.90;;;;;;5267911;28;20672;-69
2023/03/11 01:27:59;;;;;;;72.82;68.18;;;14.90;99.90;;;;;;5267869;28;20009;-69
2023/03/11 01:30:30;;;;;;;83.68;78.30;;;14.90;99.90;;;;;;5267809;28;20391;-69
2023/03/11 01:33:02;;;;;;;75.22;70.60;;;14.80;99.90;;;;;;5267845;28;20012;-69
2023/03/11 01:35:34;;;;;;;65.40;60.75;;;14.80;99.90;;;;;;5267956;28;20036;-68
2023/03/11 01:38:05;;;;;;;74.95;70.32;;;14.80;99.90;;;;;;5267682;28;20059;-69
2023/03/11 01:40:42;;;;;;;66.55;62.42;;;14.80;99.90;;;;;;5267786;28;20059;-69
2023/03/11 01:43:44;;;;;;;68.63;64.43;;;14.80;99.90;;;;;;5270869;28;20062;-69
2023/03/11 01:46:25;;;;;;;82.55;77.47;;;14.90;99.90;;;;;;5271922;28;20028;-69
2023/03/11 01:49:01;;;;;;;71.40;66.50;;;14.90;99.90;;;;;;5271860;28;20035;-69
2023/03/11 01:51:42;;;;;;;70.80;66.20;;;14.80;99.90;;;;;;5271910;28;20094;-68
2023/03/11 01:54:15;;;;;;;;;;;14.80;99.90;;;;;;5272146;28;20028;-68
2023/03/11 01:56:46;;;;;;;72.47;67.63;;;14.90;99.90;;;;;;5271727;28;19994;-69
2023/03/11 01:59:22;;;;;;;72.38;67.60;;;14.80;99.90;;;;;;5271682;28;20059;-69
2023/03/11 02:02:16;;;;;;;75.63;71.05;;;14.90;99.90;;;;;;5271654;28;20024;-68
2023/03/11 02:04:48;;;;;;;73.35;68.55;;;14.90;99.90;;;;;;5271617;28;20383;-69
2023/03/11 02:07:19;;;;;;;66.40;62.40;;;14.90;99.90;;;;;;5271257;28;20024;-68
2023/03/11 02:09:50;;;;;;;82.38;77.57;;;14.90;99.90;;;;;;5271130;28;20414;-69
2023/03/11 02:12:21;;;;;;;66.43;62.10;;;15.00;99.90;;;;;;5271338;28;20023;-69
2023/03/11 02:14:55;;;;;;;69.75;65.22;;;15.00;99.90;;;;;;5271480;28;20511;-67
2023/03/11 02:17:26;;;;;;;68.35;64.00;;;14.90;99.90;;;;;;5271174;28;20028;-69
2023/03/11 02:20:12;;;;;;;68.35;63.78;;;14.90;99.90;;;;;;5264871;28;20039;-69
2023/03/11 02:22:43;;;;;;;68.90;64.80;;;15.10;99.90;;;;;;5250268;28;20032;-69
2023/03/11 02:25:34;;;;;;;70.63;66.30;;;15.00;99.90;;;;;;5250349;28;20052;-68
2023/03/11 02:28:07;;;;;;;66.97;62.72;;;15.00;99.90;;;;;;5250365;28;20043;-69
2023/03/11 02:30:41;;;;;;;70.38;65.82;;;15.00;99.90;;;;;;5250140;28;20033;-69
2023/03/11 02:33:14;;;;;;;68.78;64.47;;;14.90;99.90;;;;;;5259817;28;20494;-67
2023/03/11 02:35:45;;;;;;;67.75;63.45;;;14.90;99.90;;;;;;5270918;28;20501;-68
2023/03/11 02:38:16;;;;;;;70.90;66.40;;;14.90;99.90;;;;;;5270754;28;20111;-69
2023/03/11 02:40:54;;;;;;;69.88;65.65;;;14.90;99.90;;;;;;5270912;28;20024;-70
2023/03/11 02:43:39;;;;;;;84.57;79.30;;;14.90;99.90;;;;;;5270787;28;20028;-69
2023/03/11 02:46:11;;;;;;;71.65;67.35;;;14.90;99.90;;;;;;5270749;28;20107;-69
2023/03/11 02:48:43;;;;;;;70.20;65.90;;;14.90;99.90;;;;;;5270658;28;20035;-69
2023/03/11 02:51:14;;;;;;;70.18;65.97;;;14.80;99.90;;;;;;5254963;28;20075;-70
2023/03/11 02:53:49;;;;;;;101.30;95.15;;;14.80;99.90;;;;;;5269862;28;20094;-70
2023/03/11 02:56:20;;;;;;;66.03;61.50;;;14.90;99.90;;;;;;5270722;28;20431;-70
2023/03/11 02:58:51;;;;;;;67.07;63.03;;;14.80;99.90;;;;;;5269271;28;20012;-69
2023/03/11 03:01:22;;;;;;;77.03;72.03;;;14.80;99.90;;;;;;5270463;28;20024;-69
2023/03/11 03:03:53;;;;;;;81.10;76.05;;;14.80;99.90;;;;;;5270499;28;20042;-69
2023/03/11 03:06:24;;;;;;;67.30;62.83;;;14.90;99.90;;;;;;5270262;28;20475;-69
2023/03/11 03:08:54;;;;;;;151.88;142.18;;;14.90;99.90;;;;;;5270066;28;20050;-69
2023/03/11 03:11:25;;;;;;;68.75;64.53;;;14.80;99.90;;;;;;5270039;28;20040;-67
2023/03/11 03:13:56;;;;;;;75.25;70.40;;;15.00;99.90;;;;;;5270130;28;20050;-69
2023/03/11 03:16:27;;;;;;;85.85;80.82;;;15.00;99.90;;;;;;5270090;28;20024;-67
2023/03/11 03:18:58;;;;;;;79.30;74.05;;;15.10;99.90;;;;;;5269882;28;20110;-70
2023/03/11 03:21:29;;;;;;;70.30;66.00;;;15.00;99.90;;;;;;5268818;28;20539;-69
2023/03/11 03:24:00;;;;;;;71.38;67.10;;;15.00;99.90;;;;;;5270009;28;20017;-69
2023/03/11 03:26:30;;;;;;;76.30;71.57;;;14.90;99.90;;;;;;5269964;28;20032;-69
2023/03/11 03:29:02;;;;;;;79.82;74.70;;;14.90;99.90;;;;;;5269826;28;20016;-70
2023/03/11 03:31:33;;;;;;;83.07;78.07;;;14.90;99.90;;;;;;5269912;28;20028;-67
2023/03/11 03:34:03;;;;;;;78.35;73.63;;;14.80;99.90;;;;;;5269874;28;20039;-69
2023/03/11 03:36:34;;;;;;;110.20;103.43;;;14.80;99.90;;;;;;5269695;28;20514;-69
2023/03/11 03:39:05;;;;;;;78.97;74.25;;;14.80;99.90;;;;;;5268126;28;20062;-69
2023/03/11 03:41:36;;;;;;;133.20;125.53;;;14.70;99.90;;;;;;5269700;28;20467;-68
2023/03/11 03:44:07;;;;;;;196.73;184.90;;;14.80;99.90;;;;;;5269603;28;20100;-69
2023/03/11 03:46:38;;;;;;;85.47;80.72;;;14.80;99.90;;;;;;5263261;28;20060;-69
2023/03/11 03:49:09;;;;;;;116.25;109.47;;;14.80;99.90;;;;;;5263535;28;20101;-69
2023/03/11 03:51:40;;;;;;;91.22;85.72;;;14.70;99.90;;;;;;5268396;28;20028;-69
2023/03/11 03:54:10;;;;;;;86.13;80.93;;;14.60;99.90;;;;;;5269590;28;20012;-69
2023/03/11 03:56:41;;;;;;;132.45;124.82;;;14.60;99.90;;;;;;5269323;28;20101;-69
2023/03/11 03:59:12;;;;;;;89.15;84.00;;;14.60;99.90;;;;;;5269399;28;20039;-67
2023/03/11 04:01:43;;;;;;;93.57;87.85;;;14.50;99.90;;;;;;5269289;28;20036;-69
2023/03/11 04:04:14;;;;;;;85.93;80.68;;;14.60;99.90;;;;;;5269195;28;20425;-69
2023/03/11 04:06:45;;;;;;;83.68;78.63;;;14.60;99.90;;;;;;5269225;28;20023;-69
2023/03/11 04:09:16;;;;;;;80.53;75.72;;;14.60;99.90;;;;;;5268838;28;20353;-69
2023/03/11 04:11:47;;;;;;;122.32;115.25;;;14.60;99.90;;;;;;5268988;28;20060;-69
2023/03/11 04:14:18;;;;;;;187.63;176.52;;;14.60;99.90;;;;;;5743771;22;20156;-69
2023/03/11 04:16:48;;;;;;;87.15;82.03;;;14.50;99.90;;;;;;5227298;28;20536;-69
2023/03/11 04:19:19;;;;;;;167.30;156.27;;;14.60;99.90;;;;;;5227134;28;20108;-67
2023/03/11 04:21:50;;;;;;;97.88;91.95;;;14.60;99.90;;;;;;5227251;28;20051;-68
2023/03/11 04:24:21;;;;;;;87.82;82.38;;;14.50;99.90;;;;;;5227289;28;20032;-67
2023/03/11 04:26:52;;;;;;;94.32;88.45;;;14.40;99.90;;;;;;5227167;28;20522;-69
2023/03/11 04:29:23;;;;;;;94.68;88.70;;;14.50;99.90;;;;;;5226923;28;20037;-69
2023/03/11 04:31:54;;;;;;;83.93;78.97;;;14.50;99.90;;;;;;5227063;28;20070;-69
2023/03/11 04:34:24;;;;;;;84.25;79.00;;;14.60;99.90;;;;;;5225806;28;20021;-69
2023/03/11 04:36:55;;;;;;;81.32;76.70;;;14.50;99.90;;;;;;5227049;28;20029;-69
2023/03/11 04:39:26;;;;;;;83.55;78.32;;;14.50;99.90;;;;;;5226773;28;20055;-67
2023/03/11 04:41:57;;;;;;;75.70;71.07;;;14.60;99.90;;;;;;5226794;28;20021;-67
2023/03/11 04:44:28;;;;;;;82.78;77.72;;;14.60;99.90;;;;;;5240406;28;20063;-69
2023/03/11 04:46:59;;;;;;;83.03;77.97;;;14.70;99.90;;;;;;5247346;28;20095;-70
2023/03/11 04:49:30;;;;;;;88.57;83.43;;;14.70;99.90;;;;;;5247312;28;20119;-69
2023/03/11 04:52:01;;;;;;;90.82;85.20;;;14.70;99.90;;;;;;5247376;28;20524;-69
2023/03/11 04:54:31;;;;;;;94.93;89.47;;;14.70;99.90;;;;;;5247470;28;20103;-69
2023/03/11 04:57:02;;;;;;;88.43;83.22;;;14.70;99.90;;;;;;5247379;28;20056;-69
2023/03/11 04:59:33;;;;;;;85.72;80.68;;;14.80;99.90;;;;;;5247281;28;20040;-68
2023/03/11 05:02:05;;;;;;;95.57;89.68;;;14.90;99.90;;;;;;5246688;28;20057;-69
2023/03/11 05:04:36;;;;;;;81.00;75.72;;;14.90;99.90;;;;;;5247303;28;20078;-69
2023/03/11 05:07:06;;;;;;;80.15;75.47;;;15.00;99.90;;;;;;5246928;28;20017;-69
2023/03/11 05:09:37;;;;;;;99.82;93.93;;;15.00;99.90;;;;;;5247235;28;20028;-69
2023/03/11 05:12:11;;;;;;;90.82;85.53;;;15.10;99.90;;;;;;5247216;28;20034;-69
2023/03/11 05:14:42;;;;;;;202.30;189.77;;;15.10;99.90;;;;;;5246699;28;20400;-69
2023/03/11 05:17:13;;;;;;;97.53;91.63;;;15.20;99.90;;;;;;5246604;28;20100;-68
2023/03/11 05:19:45;;;;;;;84.05;79.25;;;15.30;99.90;;;;;;5246938;28;20382;-69
2023/03/11 05:22:16;;;;;;;83.13;78.13;;;15.40;99.90;;;;;;5247096;28;20035;-69
2023/03/11 05:24:47;;;;;;;84.50;79.70;;;15.50;99.90;;;;;;5247023;28;20472;-69
2023/03/11 05:27:18;;;;;;;81.70;77.10;;;15.70;99.90;;;;;;5247012;28;20063;-69
2023/03/11 05:29:49;;;;;;;85.38;80.40;;;15.80;99.90;;;;;;5245921;28;20492;-69
2023/03/11 05:32:20;;;;;;;87.30;82.35;;;15.90;99.90;;;;;;5246902;28;20075;-69
2023/03/11 05:34:51;;;;;;;89.82;84.50;;;15.90;99.90;;;;;;5245699;28;20101;-69
2023/03/11 05:37:22;;;;;;;85.57;80.47;;;16.00;99.90;;;;;;5246351;28;20021;-70
2023/03/11 05:39:53;;;;;;;84.90;79.97;;;16.10;99.90;;;;;;5246759;28;20023;-69
2023/03/11 05:42:23;;;;;;;88.15;82.95;;;15.90;99.90;;;;;;5246703;28;20033;-68
2023/03/11 05:44:54;;;;;;;81.60;76.93;;;15.80;99.90;;;;;;5262313;28;20016;-69
2023/03/11 05:47:25;;;;;;;81.88;76.95;;;16.00;99.90;;;;;;5246767;28;20087;-67
2023/03/11 05:49:56;;;;;;;94.65;89.10;;;15.80;99.90;;;;;;5246508;28;20491;-69
2023/03/11 05:52:29;;;;;;;97.38;91.70;;;15.90;99.90;;;;;;5246711;28;20028;-69
2023/03/11 05:55:00;;;;;;;93.57;88.28;;;15.80;99.90;;;;;;5246557;28;20111;-69
2023/03/11 05:57:31;;;;;;;87.25;82.25;;;15.80;99.90;;;;;;5246644;28;20524;-67
2023/03/11 06:00:04;;;;;;;226.13;212.38;;;16.00;99.90;;;;;;5246695;28;20021;-68
2023/03/11 06:02:35;;;;;;;95.53;89.85;;;16.10;99.90;;;;;;5246534;28;20029;-69
2023/03/11 06:05:07;;;;;;;88.47;83.22;;;16.40;99.90;;;;;;5246558;28;20537;-69
2023/03/11 06:07:38;;;;;;;93.97;88.50;;;16.60;99.90;;;;;;5246647;28;20648;-69
2023/03/11 06:10:09;;;;;;;94.97;89.40;;;16.60;99.90;;;;;;5246600;28;20460;-69
2023/03/11 06:12:40;;;;;;;134.30;126.70;;;16.50;99.90;;;;;;5246419;28;20036;-68
2023/03/11 06:15:11;;;;;;;98.13;92.47;;;16.30;99.90;;;;;;5246576;28;20093;-67
2023/03/11 06:17:42;;;;;;;91.40;85.97;;;16.50;99.90;;;;;;5246548;28;20044;-69
2023/03/11 06:20:12;;;;;;;88.68;83.15;;;16.70;99.90;;;;;;5246539;28;20025;-67
2023/03/11 06:22:43;;;;;;;92.20;86.78;;;16.70;99.90;;;;;;5246703;28;20487;-69
2023/03/11 06:25:14;;;;;;;93.68;88.25;;;16.70;99.90;;;;;;5246393;28;20013;-69
2023/03/11 06:27:50;;;;;;;100.40;94.60;;;16.90;99.90;;;;;;5246356;28;20534;-69
2023/03/11 06:30:23;;;;;;;147.88;139.65;;;16.90;99.90;;;;;;5249252;28;20040;-69
2023/03/11 06:32:53;;;;;;;112.55;106.18;;;16.80;99.90;;;;;;5250036;28;20028;-68
2023/03/11 06:35:24;;;;;;;164.55;154.05;;;16.90;99.90;;;;;;5249709;28;21658;-67
2023/03/11 06:37:55;;;;;;;148.70;140.15;;;16.90;99.90;;;;;;5249901;28;20028;-67
2023/03/11 06:40:26;;;;;;;96.85;91.47;;;17.20;99.90;;;;;;5250093;28;20032;-67
2023/03/11 06:42:57;;;;;;;97.82;92.30;;;17.20;99.90;;;;;;5249733;28;20032;-67
2023/03/11 06:45:28;;;;;;;99.95;94.28;;;17.50;99.90;;;;;;5265415;28;20039;-71
2023/03/11 06:47:58;;;;;;;102.28;96.55;;;17.60;99.90;;;;;;5249808;28;20025;-69
2023/03/11 06:50:29;;;;;;;107.05;100.50;;;17.40;99.90;;;;;;5249819;28;20029;-69
2023/03/11 06:53:01;;;;;;;92.70;87.40;;;17.60;99.90;;;;;;5249557;28;20028;-69
2023/03/11 06:55:33;;;;;;;78.00;73.40;;;17.80;99.90;;;;;;5249503;28;20024;-69
2023/03/11 06:58:04;;;;;;;236.68;223.13;;;17.60;99.90;;;;;;5249649;28;20475;-69
2023/03/11 07:00:36;;;;;;;81.22;76.55;;;17.50;99.90;;;;;;5249571;28;20033;-69
2023/03/11 07:03:06;;;;;;;75.68;71.30;;;17.70;99.90;;;;;;5249574;28;20044;-69
2023/03/11 07:05:37;;;;;;;89.22;83.93;;;17.80;99.90;;;;;;5249619;28;20119;-69
2023/03/11 07:08:08;;;;;;;83.18;78.40;;;17.80;99.90;;;;;;5249485;28;20029;-70
2023/03/11 07:10:39;;;;;;;77.97;73.25;;;17.80;99.90;;;;;;5245661;28;20094;-70
2023/03/11 07:13:10;;;;;;;71.07;67.05;;;17.80;99.90;;;;;;5248816;28;20029;-69
2023/03/11 07:15:41;;;;;;;93.97;88.60;;;17.80;99.90;;;;;;5248971;28;20043;-68
2023/03/11 07:18:12;;;;;;;75.85;71.30;;;18.00;99.90;;;;;;5237335;28;20017;-73
2023/03/11 07:20:42;;;;;;;78.57;73.47;;;18.20;99.90;;;;;;5240447;28;20058;-73
2023/03/11 07:23:13;;;;;;;87.60;82.60;;;18.30;99.90;;;;;;5237963;28;20082;-72
2023/03/11 07:25:47;;;;;;;76.85;72.20;;;18.10;99.90;;;;;;5244825;28;20037;-73
2023/03/11 07:28:19;;;;;;;102.15;96.38;;;18.50;99.90;;;;;;5230647;28;20044;-72
2023/03/11 07:30:50;;;;;;;83.32;78.40;;;18.00;99.90;;;;;;5251016;28;20044;-69
2023/03/11 07:33:23;;;;;;;78.90;73.95;;;18.00;99.90;;;;;;5248705;28;20024;-75
2023/03/11 07:35:54;;;;;;;84.85;79.88;;;17.70;99.90;;;;;;5240138;28;20039;-72
2023/03/11 07:38:25;;;;;;;77.15;72.53;;;17.60;99.90;;;;;;5229524;28;20453;-72
2023/03/11 07:40:59;;;;;;;110.15;104.00;;;17.60;99.90;;;;;;5228069;28;20024;-72
2023/03/11 07:43:30;;;;;;;79.75;74.88;;;17.60;99.90;;;;;;5227995;28;20036;-72
2023/03/11 07:46:02;;;;;;;94.22;88.75;;;17.70;99.90;;;;;;5228086;28;20032;-71
2023/03/11 07:48:35;;;;;;;78.53;74.07;;;17.70;99.90;;;;;;5234811;28;20033;-72
2023/03/11 07:51:14;;;;;;;166.65;154.30;;;18.10;99.90;;;;;;5236960;28;20033;-72
2023/03/11 07:53:50;;;;;;;86.65;81.75;;;17.80;99.90;;;;;;5228079;28;20033;-73
2023/03/11 07:56:23;;;;;;;87.90;82.85;;;17.90;99.90;;;;;;5237062;28;20043;-72
2023/03/11 07:58:57;;;;;;;82.05;77.35;;;18.20;99.90;;;;;;5247943;28;20032;-72
2023/03/11 08:01:34;;;;;;;25.77;23.67;;;18.10;99.90;;;;;;5193818;28;20041;-70
2023/03/11 08:04:10;;;;;;;10.80;9.70;;;19.40;99.90;;;;;;5087332;28;20043;-71
2023/03/11 08:06:43;;;;;;;1591.32;996.28;;;20.00;99.90;;;;;;5085232;28;20033;-70
2023/03/11 08:09:14;;;;;;;50.13;46.83;;;18.00;99.90;;;;;;5073645;28;20049;-75
2023/03/11 08:11:45;;;;;;;56.33;52.63;;;17.60;99.90;;;;;;5186781;28;20030;-71
2023/03/11 08:14:16;;;;;;;381.40;356.58;;;17.80;99.90;;;;;;5111911;28;20421;-73
2023/03/11 08:16:47;;;;;;;143.10;135.18;;;17.40;99.90;;;;;;5194195;28;20492;-72
2023/03/11 08:19:18;;;;;;;332.77;311.05;;;17.70;99.90;;;;;;5204193;28;20041;-70
2023/03/11 08:21:49;;;;;;;233.75;220.82;;;17.50;99.90;;;;;;5205306;28;20026;-72
2023/03/11 08:24:20;;;;;;;142.68;134.45;;;17.30;99.90;;;;;;5206538;28;20025;-69
2023/03/11 08:26:50;;;;;;;145.38;137.23;;;17.50;99.90;;;;;;5145736;28;20492;-73
2023/03/11 08:29:22;;;;;;;142.43;133.98;;;17.40;99.90;;;;;;5222231;28;20021;-71
2023/03/11 08:31:53;;;;;;;177.13;166.95;;;17.30;99.90;;;;;;5211790;28;20025;-73
2023/03/11 08:34:26;;;;;;;200.13;188.68;;;16.90;99.90;;;;;;5214107;28;20036;-74
2023/03/11 08:36:57;;;;;;;174.52;164.70;;;16.60;99.90;;;;;;5206434;28;20032;-72
2023/03/11 08:39:28;;;;;;;266.35;250.77;;;16.20;99.90;;;;;;5206493;28;20428;-73
2023/03/11 08:41:58;;;;;;;126.30;118.82;;;15.80;99.90;;;;;;5206859;28;20033;-73
2023/03/11 08:44:29;;;;;;;125.88;118.35;;;16.00;99.90;;;;;;5206370;28;20017;-75
2023/03/11 08:47:00;;;;;;;163.07;153.15;;;15.70;99.90;;;;;;5206779;28;20551;-74
2023/03/11 08:49:31;;;;;;;268.92;253.25;;;15.40;99.90;;;;;;5222966;28;20108;-72
2023/03/11 08:52:03;;;;;;;110.25;103.60;;;15.10;99.90;;;;;;5226346;28;20111;-73
2023/03/11 08:54:33;;;;;;;115.95;108.85;;;15.30;99.90;;;;;;5226946;28;20060;-73
2023/03/11 08:57:04;;;;;;;147.88;139.48;;;15.10;99.90;;;;;;5226815;28;20445;-73
2023/03/11 08:59:35;;;;;;;148.00;139.63;;;15.00;99.90;;;;;;5224890;28;20024;-71
2023/03/11 09:02:06;;;;;;;194.20;183.02;;;15.00;99.90;;;;;;5221298;28;20036;-71
2023/03/11 09:04:37;;;;;;;133.30;125.70;;;15.00;99.90;;;;;;5226706;28;20082;-69
2023/03/11 09:07:17;;;;;;;129.07;121.60;;;14.90;99.90;;;;;;5181041;28;20559;-71
2023/03/11 09:09:48;;;;;;;117.25;110.57;;;14.80;99.90;;;;;;5225382;28;20127;-71
2023/03/11 09:12:20;;;;;;;109.75;103.07;;;14.90;99.90;;;;;;5225036;28;20063;-70
2023/03/11 09:14:53;;;;;;;102.18;96.28;;;14.90;99.90;;;;;;5225156;28;20049;-70
2023/03/11 09:17:24;;;;;;;95.10;89.93;;;14.70;99.90;;;;;;5226314;28;20033;-70
2023/03/11 09:19:55;;;;;;;96.40;91.10;;;14.70;99.90;;;;;;5226489;28;20040;-70
2023/03/11 09:22:27;;;;;;;121.28;114.55;;;14.60;99.90;;;;;;5226300;28;20056;-71
2023/03/11 09:24:58;;;;;;;93.72;88.38;;;14.20;99.90;;;;;;5226545;28;20148;-70
2023/03/11 09:27:28;;;;;;;91.97;86.85;;;14.20;99.90;;;;;;5226400;28;20358;-71
2023/03/11 09:29:59;;;;;;;95.28;89.80;;;14.10;99.90;;;;;;5215979;28;20410;-70
2023/03/11 09:32:30;;;;;;;97.32;91.88;;;14.20;99.90;;;;;;5205684;28;20436;-71
2023/03/11 09:35:01;;;;;;;146.50;138.35;;;14.00;99.90;;;;;;5205696;28;20481;-71
2023/03/11 09:37:32;;;;;;;99.07;93.53;;;13.90;99.90;;;;;;5204281;28;20034;-72
2023/03/11 09:40:03;;;;;;;98.63;93.18;;;13.90;99.90;;;;;;5205556;28;20547;-72
2023/03/11 09:42:37;;;;;;;97.95;92.55;;;13.90;99.90;;;;;;5204948;28;20026;-71
2023/03/11 09:45:37;;;;;;;98.30;92.70;;;13.90;99.90;;;;;;5205528;28;20029;-73
2023/03/11 09:48:11;;;;;;;137.80;130.30;;;13.90;99.90;;;;;;5204317;28;20049;-71
2023/03/11 09:50:57;;;;;;;120.30;113.35;;;13.80;99.90;;;;;;5203512;28;20041;-71
2023/03/11 09:53:45;;;;;;;114.53;108.30;;;13.90;99.90;;;;;;5202686;28;20040;-72
2023/03/11 09:56:19;;;;;;;89.05;84.22;;;13.60;99.90;;;;;;5205157;28;20063;-72
2023/03/11 09:59:32;;;;;;;101.00;95.40;;;13.80;99.90;;;;;;5205570;28;20396;-72
2023/03/11 10:02:04;;;;;;;263.00;247.88;;;13.50;99.90;;;;;;5182253;28;20073;-72
2023/03/11 10:04:53;;;;;;;103.97;98.25;;;13.30;99.90;;;;;;5208625;28;20025;-72
2023/03/11 10:07:39;;;;;;;89.78;84.95;;;13.30;99.90;;;;;;5208984;28;20053;-72
2023/03/11 10:10:16;;;;;;;94.93;89.50;;;13.40;99.90;;;;;;5209006;28;20037;-72
2023/03/11 10:13:22;;;;;;;125.60;118.65;;;13.20;99.90;;;;;;5208676;28;20025;-72
2023/03/11 10:16:24;;;;;;;69.22;65.32;;;13.20;99.90;;;;;;5209023;28;20042;-70
2023/03/11 10:19:15;;;;;;;147.13;138.55;;;13.20;99.90;;;;;;5209103;28;20361;-69
2023/03/11 10:22:22;;;;;;;155.10;146.38;;;13.20;99.90;;;;;;5205353;28;20049;-70
2023/03/11 10:25:10;;;;;;;98.53;92.70;;;13.20;99.90;;;;;;5209178;28;20022;-69
2023/03/11 10:27:48;;;;;;;134.32;126.68;;;13.30;99.90;;;;;;5209006;28;20102;-70
2023/03/11 10:30:35;;;;;;;125.90;118.80;;;13.10;99.90;;;;;;5208798;28;20026;-70
2023/03/11 10:33:18;;;;;;;119.45;112.60;;;13.10;99.90;;;;;;5209036;28;20465;-70
2023/03/11 10:35:57;;;;;;;114.68;107.70;;;13.20;99.90;;;;;;5209014;28;20136;-70
2023/03/11 10:38:41;;;;;;;126.38;119.20;;;13.10;99.90;;;;;;5208767;28;20037;-70
2023/03/11 10:41:40;;;;;;;146.50;138.10;;;13.20;99.90;;;;;;5208841;28;20079;-70
2023/03/11 10:44:22;;;;;;;145.73;137.48;;;13.20;99.90;;;;;;5203802;28;20060;-70
2023/03/11 10:46:53;;;;;;;179.05;168.77;;;13.20;99.90;;;;;;5208529;28;20045;-70
2023/03/11 10:49:24;;;;;;;131.35;123.90;;;13.10;99.90;;;;;;5208519;28;20072;-70
2023/03/11 10:51:56;;;;;;;130.65;122.95;;;13.50;99.90;;;;;;5207197;28;20034;-70
2023/03/11 10:54:31;;;;;;;162.40;153.27;;;13.60;99.90;;;;;;5208387;28;20026;-70
2023/03/11 10:57:27;;;;;;;131.73;124.10;;;13.50;99.90;;;;;;5208447;28;20080;-70
2023/03/11 11:00:00;;;;;;;147.68;139.05;;;13.50;99.90;;;;;;5208285;28;20032;-70
2023/03/11 11:02:36;;;;;;;145.75;137.15;;;13.50;99.90;;;;;;5208294;28;20060;-70
2023/03/11 11:05:16;;;;;;;94.00;88.32;;;13.60;99.90;;;;;;5208304;28;20060;-70
2023/03/11 11:07:49;;;;;;;125.32;117.90;;;13.80;99.90;;;;;;5208193;28;20034;-70
2023/03/11 11:10:25;;;;;;;134.82;127.03;;;13.60;99.90;;;;;;5208174;28;20049;-70
2023/03/11 11:13:03;;;;;;;335.92;316.13;;;13.80;99.90;;;;;;5208233;28;20024;-70
2023/03/11 11:15:40;;;;;;;125.03;117.97;;;13.70;99.90;;;;;;5207451;28;20061;-71
2023/03/11 11:18:44;;;;;;;138.18;130.40;;;13.80;99.90;;;;;;5208522;28;20505;-70
2023/03/11 11:21:30;;;;;;;116.55;110.13;;;14.00;99.90;;;;;;5208191;28;20029;-71
2023/03/11 11:24:19;;;;;;;96.22;90.72;;;13.80;99.90;;;;;;5208033;28;20473;-70
2023/03/11 11:27:14;;;;;;;99.93;94.13;;;13.90;99.90;;;;;;5208022;28;20051;-70
2023/03/11 11:29:47;;;;;;;88.45;83.13;;;13.90;99.90;;;;;;5206429;28;20021;-70
2023/03/11 11:32:25;;;;;;;97.93;92.38;;;13.60;99.90;;;;;;5207823;28;20040;-71
2023/03/11 11:35:14;;;;;;;109.47;103.07;;;13.70;99.90;;;;;;5207824;28;20117;-71
2023/03/11 11:37:51;;;;;;;83.18;78.15;;;13.70;99.90;;;;;;5207813;28;20032;-71
2023/03/11 11:40:32;;;;;;;81.95;77.15;;;13.90;99.90;;;;;;5207660;28;20033;-70
2023/03/11 11:43:15;;;;;;;90.18;84.97;;;14.20;99.90;;;;;;5207480;28;20112;-71
2023/03/11 11:45:53;;;;;;;97.50;92.05;;;14.00;99.90;;;;;;5207601;28;20041;-71
2023/03/11 11:48:33;;;;;;;183.02;172.77;;;14.20;99.90;;;;;;5207585;28;20025;-70
2023/03/11 11:51:25;;;;;;;110.60;103.90;;;13.60;99.90;;;;;;5207360;28;20546;-71
2023/03/11 11:54:06;;;;;;;92.88;87.40;;;14.00;99.90;;;;;;5207330;28;20049;-70
2023/03/11 11:56:39;;;;;;;95.90;90.10;;;14.10;99.90;;;;;;5207291;28;20025;-71
2023/03/11 11:59:23;;;;;;;91.22;85.85;;;14.10;99.90;;;;;;5207064;28;20033;-71
2023/03/11 12:02:19;;;;;;;73.13;68.47;;;14.10;99.90;;;;;;5207065;28;20071;-71
2023/03/11 12:05:09;;;;;;;82.22;77.55;;;14.10;99.90;;;;;;5222296;28;20078;-70
2023/03/11 12:07:46;;;;;;;92.95;87.55;;;14.00;99.90;;;;;;5226781;28;20449;-70
2023/03/11 12:10:22;;;;;;;123.22;116.28;;;14.40;99.90;;;;;;5226150;28;20067;-70
2023/03/11 12:13:28;;;;;;;113.53;106.70;;;14.20;99.90;;;;;;5227328;28;20029;-70
2023/03/11 12:16:05;;;;;;;74.97;70.65;;;14.40;99.90;;;;;;5227416;28;20076;-70
2023/03/11 12:18:36;;;;;;;106.63;100.32;;;14.70;99.90;;;;;;5226998;28;20025;-71
2023/03/11 12:21:30;;;;;;;150.90;142.07;;;15.10;99.90;;;;;;5227217;28;20384;-70
2023/03/11 12:24:19;;;;;;;126.45;119.18;;;15.00;99.90;;;;;;5216407;28;20037;-70
2023/03/11 12:26:53;;;;;;;75.07;70.55;;;15.00;99.90;;;;;;5226182;28;20029;-71
2023/03/11 12:29:45;;;;;;;101.60;96.05;;;15.50;99.90;;;;;;5227145;28;20024;-70
2023/03/11 12:32:37;;;;;;;96.05;90.13;;;15.60;99.90;;;;;;5223271;28;20552;-72
2023/03/11 12:35:26;;;;;;;99.60;93.97;;;15.40;99.90;;;;;;5216522;28;20029;-71
2023/03/11 12:38:12;;;;;;;69.97;66.05;;;15.50;99.90;;;;;;5206618;28;20022;-70
2023/03/11 12:40:58;;;;;;;73.43;69.15;;;16.00;99.90;;;;;;5206410;28;20040;-70
2023/03/11 12:43:34;;;;;;;228.38;213.93;;;15.70;99.90;;;;;;5206138;28;20021;-70
2023/03/11 12:46:09;;;;;;;67.65;63.78;;;15.40;99.90;;;;;;5206327;28;20034;-70
2023/03/11 12:48:48;;;;;;;162.80;153.65;;;15.70;99.90;;;;;;5206415;28;20030;-70
2023/03/11 12:51:25;;;;;;;63.67;59.95;;;15.60;99.90;;;;;;5206235;28;20485;-70
2023/03/11 12:53:56;;;;;;;114.95;108.47;;;16.00;99.90;;;;;;5206203;28;20026;-70
2023/03/11 12:56:50;;;;;;;108.18;102.10;;;15.20;99.90;;;;;;5206225;28;20029;-70
2023/03/11 13:00:06;;;;;;;74.57;70.18;;;15.10;99.90;;;;;;5206013;28;20025;-70